createdAt,value
2019-04-22T00:01:50.394Z,15.30
2019-04-22T00:04:32.200Z,15.40
2019-04-22T00:07:15.902Z,15.23
2019-04-22T00:09:53.453Z,15.09
2019-04-22T00:14:46.563Z,15.08
2019-04-22T00:17:30.665Z,15.14
2019-04-22T00:19:57.582Z,15.15
2019-04-22T00:22:27.404Z,15.16
2019-04-22T00:25:05.551Z,15.21
2019-04-22T00:27:35.803Z,15.20
2019-04-22T00:30:07.274Z,15.19
2019-04-22T00:32:36.567Z,15.11
2019-04-22T00:35:07.103Z,15.02
2019-04-22T00:37:43.718Z,14.99
2019-04-22T00:40:17.734Z,14.85
2019-04-22T00:42:46.947Z,14.76
2019-04-22T00:45:19.413Z,14.67
2019-04-22T00:47:43.833Z,14.71
2019-04-22T00:52:59.909Z,14.72
2019-04-22T00:55:24.781Z,14.77
2019-04-22T00:57:56.332Z,14.68
2019-04-22T01:00:27.785Z,14.74
2019-04-22T01:03:02.715Z,14.61
2019-04-22T01:05:32.672Z,14.51
2019-04-22T01:08:09.604Z,14.25
2019-04-22T01:10:32.398Z,14.26
2019-04-22T01:13:04.704Z,14.26
2019-04-22T01:15:33.906Z,14.30
2019-04-22T01:18:08.264Z,14.24
2019-04-22T01:23:03.838Z,14.08
2019-04-22T01:25:39.233Z,14.14
2019-04-22T01:28:00.914Z,14.11
2019-04-22T01:30:28.776Z,13.95
2019-04-22T01:32:53.906Z,13.86
2019-04-22T01:35:35.838Z,13.72
2019-04-22T01:38:07.911Z,13.45
2019-04-22T01:40:58.615Z,13.51
2019-04-22T01:43:25.014Z,13.46
2019-04-22T01:45:54.479Z,13.41
2019-04-22T01:48:26.852Z,13.38
2019-04-22T01:50:54.783Z,13.24
2019-04-22T01:53:27.133Z,13.32
2019-04-22T01:55:59.053Z,13.30
2019-04-22T01:58:23.454Z,13.27
2019-04-22T02:01:00.989Z,13.30
2019-04-22T02:03:33.323Z,13.33
2019-04-22T02:06:12.160Z,13.22
2019-04-22T02:08:45.399Z,13.15
2019-04-22T02:11:09.355Z,13.16
2019-04-22T02:13:36.644Z,13.19
2019-04-22T02:16:12.547Z,13.31
2019-04-22T02:18:50.710Z,13.39
2019-04-22T02:21:09.319Z,13.45
2019-04-22T02:23:47.085Z,13.47
2019-04-22T02:26:31.523Z,13.46
2019-04-22T02:28:55.976Z,13.43
2019-04-22T02:31:25.852Z,13.41
2019-04-22T02:51:30.104Z,12.98
2019-04-22T02:56:31.488Z,12.93
2019-04-22T03:01:36.549Z,12.91
2019-04-22T03:09:12.571Z,12.75
2019-04-22T03:11:47.653Z,12.61
2019-04-22T03:14:22.661Z,12.40
2019-04-22T03:21:46.944Z,12.05
2019-04-22T03:24:23.596Z,12.09
2019-04-22T03:27:00.691Z,11.94
2019-04-22T03:29:44.586Z,11.97
2019-04-22T03:37:32.375Z,11.63
2019-04-22T03:40:03.979Z,11.61
2019-04-22T03:42:09.780Z,11.68
2019-04-22T03:44:54.254Z,11.71
2019-04-22T03:47:33.593Z,11.76
2019-04-22T03:49:56.028Z,11.77
2019-04-22T03:57:48.939Z,11.81
2019-04-22T04:04:49.524Z,11.77
2019-04-22T04:07:40.558Z,11.61
2019-04-22T04:12:28.481Z,11.68
2019-04-22T04:17:36.895Z,11.63
2019-04-22T04:27:53.617Z,11.65
2019-04-22T04:35:23.899Z,11.67
2019-04-22T04:37:52.116Z,11.46
2019-04-22T04:40:25.072Z,11.29
2019-04-22T04:50:22.695Z,11.81
2019-04-22T04:56:29.681Z,11.82
2019-04-22T04:58:10.021Z,11.81
2019-04-22T05:02:58.386Z,11.83
2019-04-22T05:05:45.058Z,11.79
2019-04-22T05:10:44.879Z,11.63
2019-04-22T05:13:01.139Z,11.78
2019-04-22T05:20:42.966Z,11.59
2019-04-22T05:23:06.963Z,11.73
2019-04-22T05:25:53.505Z,11.79
2019-04-22T05:28:06.820Z,11.99
2019-04-22T05:30:58.979Z,12.05
2019-04-22T05:33:10.167Z,12.25
2019-04-22T05:35:37.858Z,12.37
2019-04-22T05:40:36.003Z,12.52
2019-04-22T05:43:16.348Z,12.50
2019-04-22T05:45:47.341Z,12.58
2019-04-22T05:48:23.147Z,12.55
2019-04-22T05:50:47.345Z,12.73
2019-04-22T05:53:14.950Z,12.89
2019-04-22T05:55:53.846Z,13.19
2019-04-22T05:58:22.517Z,13.28
2019-04-22T06:03:42.471Z,13.80
2019-04-22T06:06:12.017Z,14.14
2019-04-22T06:08:43.995Z,14.18
2019-04-22T06:11:17.149Z,14.35
2019-04-22T06:13:41.722Z,14.46
2019-04-22T06:16:18.229Z,14.44
2019-04-22T06:18:46.993Z,14.49
2019-04-22T06:21:22.310Z,14.81
2019-04-22T06:24:01.891Z,14.93
2019-04-22T06:26:31.194Z,14.91
2019-04-22T06:28:54.675Z,15.15
2019-04-22T06:31:28.152Z,15.36
2019-04-22T06:34:07.234Z,15.11
2019-04-22T06:36:29.532Z,15.36
2019-04-22T06:38:55.939Z,15.47
2019-04-22T06:41:33.271Z,15.52
2019-04-22T06:44:04.760Z,15.48
2019-04-22T06:46:37.835Z,15.67
2019-04-22T06:49:03.015Z,15.63
2019-04-22T06:51:32.486Z,15.55
2019-04-22T06:54:03.402Z,15.61
2019-04-22T06:56:41.309Z,15.41
2019-04-22T06:59:09.755Z,15.55
2019-04-22T07:01:55.059Z,15.48
2019-04-22T07:04:23.229Z,15.32
2019-04-22T07:06:44.807Z,15.56
2019-04-22T07:11:48.296Z,15.53
2019-04-22T07:14:09.295Z,15.38
2019-04-22T07:16:43.574Z,15.47
2019-04-22T07:19:20.656Z,15.60
2019-04-22T07:21:53.557Z,15.62
2019-04-22T07:26:50.792Z,15.74
2019-04-22T07:29:41.655Z,15.72
2019-04-22T07:31:56.377Z,15.73
2019-04-22T07:34:33.369Z,15.78
2019-04-22T07:37:10.988Z,15.86
2019-04-22T07:39:30.824Z,15.93
2019-04-22T07:42:10.721Z,15.91
2019-04-22T07:44:52.064Z,15.87
2019-04-22T07:47:15.205Z,16.00
2019-04-22T07:49:39.115Z,16.15
2019-04-22T07:52:09.755Z,16.34
2019-04-22T07:54:41.689Z,16.41
2019-04-22T08:00:05.554Z,16.83
2019-04-22T08:02:16.076Z,16.95
2019-04-22T08:05:03.720Z,17.00
2019-04-22T08:07:22.546Z,16.68
2019-04-22T08:12:19.128Z,16.85
2019-04-22T08:14:52.142Z,17.01
2019-04-22T08:17:50.853Z,16.95
2019-04-22T08:19:56.058Z,17.17
2019-04-22T08:22:21.394Z,17.19
2019-04-22T08:24:54.017Z,17.33
2019-04-22T08:27:22.571Z,17.63
2019-04-22T08:32:39.171Z,17.92
2019-04-22T08:35:11.262Z,17.86
2019-04-22T08:40:15.467Z,18.20
2019-04-22T08:42:53.365Z,18.21
2019-04-22T08:45:28.592Z,18.54
2019-04-22T08:47:41.587Z,18.45
2019-04-22T08:52:40.603Z,18.80
2019-04-22T08:55:20.841Z,18.65
2019-04-22T08:58:07.217Z,18.47
2019-04-22T09:00:17.371Z,18.71
2019-04-22T09:02:52.129Z,18.98
2019-04-22T09:05:37.115Z,19.04
2019-04-22T09:08:04.972Z,19.15
2019-04-22T09:10:24.388Z,19.25
2019-04-22T09:13:02.493Z,19.37
2019-04-22T09:29:30.393Z,20.08
2019-04-22T09:32:03.560Z,19.98
2019-04-22T09:34:28.255Z,20.15
2019-04-22T09:37:05.987Z,20.29
2019-04-22T09:42:21.930Z,20.65
2019-04-22T09:44:36.570Z,20.95
2019-04-22T09:47:06.210Z,20.67
2019-04-22T09:49:44.546Z,20.67
2019-04-22T09:54:49.567Z,21.26
2019-04-22T09:57:12.007Z,21.31
2019-04-22T09:59:43.594Z,21.24
2019-04-22T10:04:48.266Z,21.46
2019-04-22T10:07:15.878Z,21.61
2019-04-22T10:12:19.251Z,21.70
2019-04-22T10:14:49.485Z,21.57
2019-04-22T10:17:23.771Z,21.69
2019-04-22T10:19:57.874Z,21.66
2019-04-22T10:22:27.979Z,21.65
2019-04-22T10:24:56.890Z,21.76
2019-04-22T10:27:26.141Z,21.70
2019-04-22T10:30:08.874Z,21.65
2019-04-22T10:32:27.935Z,21.47
2019-04-22T10:34:48.029Z,21.50
2019-04-22T10:37:17.017Z,21.72
2019-04-22T10:39:52.967Z,21.81
2019-04-22T10:42:17.398Z,21.83
2019-04-22T10:44:48.483Z,21.82
2019-04-22T10:47:20.070Z,21.56
2019-04-22T10:49:49.618Z,21.55
2019-04-22T10:52:19.143Z,21.82
2019-04-22T10:54:49.494Z,21.80
2019-04-22T10:57:20.129Z,21.84
2019-04-22T10:59:50.384Z,21.72
2019-04-22T11:02:21.490Z,21.56
2019-04-22T11:04:52.403Z,21.78
2019-04-22T11:07:31.090Z,21.84
2019-04-22T11:10:02.399Z,21.80
2019-04-22T11:12:28.292Z,21.93
2019-04-22T11:14:55.963Z,21.97
2019-04-22T11:17:26.451Z,22.12
2019-04-22T11:19:57.459Z,22.27
2019-04-22T11:22:31.328Z,21.82
2019-04-22T11:24:59.814Z,21.90
2019-04-22T11:27:30.871Z,22.01
2019-04-22T11:30:01.841Z,21.94
2019-04-22T11:32:32.766Z,21.81
2019-04-22T11:35:03.664Z,21.69
2019-04-22T11:37:34.782Z,21.55
2019-04-22T11:40:15.768Z,21.31
2019-04-22T11:42:36.394Z,21.63
2019-04-22T11:45:06.297Z,21.72
2019-04-22T11:47:37.251Z,21.82
2019-04-22T11:50:08.078Z,21.93
2019-04-22T11:52:37.699Z,22.23
2019-04-22T11:55:08.689Z,22.23
2019-04-22T11:57:39.217Z,21.91
2019-04-22T12:00:10.649Z,21.88
2019-04-22T12:02:41.025Z,21.83
2019-04-22T12:05:12.279Z,21.99
2019-04-22T12:07:42.910Z,22.14
2019-04-22T12:10:22.830Z,22.27
2019-04-22T12:12:47.756Z,21.99
2019-04-22T12:15:16.909Z,22.43
2019-04-22T12:17:46.553Z,22.40
2019-04-22T12:20:18.409Z,22.41
2019-04-22T12:22:49.164Z,22.32
2019-04-22T12:25:31.864Z,22.57
2019-04-22T12:27:52.832Z,22.61
2019-04-22T12:30:23.638Z,22.61
2019-04-22T12:32:54.554Z,22.66
2019-04-22T12:35:26.289Z,22.55
2019-04-22T12:38:01.521Z,22.81
2019-04-22T12:40:39.518Z,22.53
2019-04-22T12:42:59.474Z,22.33
2019-04-22T12:45:30.080Z,22.42
2019-04-22T12:48:00.066Z,22.67
2019-04-22T12:50:33.860Z,22.83
2019-04-22T12:53:05.226Z,23.00
2019-04-22T12:55:32.422Z,22.88
2019-04-22T12:58:02.838Z,22.86
2019-04-22T13:00:34.331Z,22.64
2019-04-22T13:03:05.226Z,22.67
2019-04-22T13:05:35.321Z,22.82
2019-04-22T13:08:05.661Z,22.87
2019-04-22T13:10:48.679Z,22.91
2019-04-22T13:13:07.205Z,22.66
2019-04-22T13:15:37.043Z,22.69
2019-04-22T13:18:16.940Z,22.70
2019-04-22T13:20:38.672Z,22.49
2019-04-22T13:23:09.501Z,22.55
2019-04-22T13:25:40.885Z,22.51
2019-04-22T13:28:13.193Z,22.34
2019-04-22T13:30:44.341Z,22.55
2019-04-22T13:33:14.854Z,22.50
2019-04-22T13:35:45.730Z,22.65
2019-04-22T13:38:17.157Z,22.78
2019-04-22T13:41:00.648Z,22.78
2019-04-22T13:43:19.156Z,22.78
2019-04-22T13:45:49.866Z,22.68
2019-04-22T13:48:38.198Z,22.82
2019-04-22T13:51:24.077Z,22.74
2019-04-22T13:54:13.693Z,22.95
2019-04-22T13:56:15.571Z,22.82
2019-04-22T13:58:40.974Z,22.85
2019-04-22T14:01:00.706Z,22.98
2019-04-22T14:03:52.295Z,22.86
2019-04-22T14:06:22.683Z,22.81
2019-04-22T14:08:53.426Z,22.62
2019-04-22T14:11:34.556Z,22.66
2019-04-22T14:13:54.284Z,22.57
2019-04-22T14:16:24.818Z,22.68
2019-04-22T14:18:55.914Z,22.58
2019-04-22T14:21:27.021Z,22.65
2019-04-22T14:23:56.602Z,22.89
2019-04-22T14:26:28.387Z,22.64
2019-04-22T14:28:57.608Z,22.66
2019-04-22T14:31:28.505Z,22.75
2019-04-22T14:34:01.820Z,22.83
2019-04-22T14:36:29.795Z,22.66
2019-04-22T14:38:59.738Z,22.76
2019-04-22T14:41:42.826Z,22.88
2019-04-22T14:45:06.616Z,23.04
2019-04-22T14:47:05.731Z,22.94
2019-04-22T14:49:31.528Z,22.85
2019-04-22T14:52:02.291Z,22.72
2019-04-22T14:54:24.254Z,22.80
2019-04-22T14:56:38.290Z,22.73
2019-04-22T14:59:09.188Z,22.74
2019-04-22T15:01:41.430Z,22.63
2019-04-22T15:04:10.976Z,22.69
2019-04-22T15:06:43.467Z,22.64
2019-04-22T15:09:12.214Z,22.40
2019-04-22T15:11:54.820Z,22.40
2019-04-22T15:14:13.013Z,22.65
2019-04-22T15:17:11.084Z,22.68
2019-04-22T15:19:49.730Z,22.67
2019-04-22T15:22:20.797Z,22.85
2019-04-22T15:24:50.488Z,22.90
2019-04-22T15:27:20.326Z,23.16
2019-04-22T15:29:51.621Z,23.51
2019-04-22T15:32:21.313Z,23.39
2019-04-22T15:34:51.156Z,23.37
2019-04-22T15:37:22.207Z,23.25
2019-04-22T15:39:53.811Z,23.19
2019-04-22T15:42:28.858Z,22.79
2019-04-22T15:44:55.850Z,22.56
2019-04-22T15:47:26.905Z,22.38
2019-04-22T15:49:58.353Z,22.27
2019-04-22T15:52:31.957Z,22.13
2019-04-22T15:55:00.660Z,21.94
2019-04-22T15:57:30.835Z,22.17
2019-04-22T16:00:14.655Z,21.87
2019-04-22T16:02:31.858Z,21.89
2019-04-22T16:05:02.726Z,22.03
2019-04-22T16:07:33.871Z,22.14
2019-04-22T16:10:05.889Z,22.00
2019-04-22T16:12:45.560Z,21.95
2019-04-22T16:15:09.604Z,22.03
2019-04-22T16:17:38.501Z,21.85
2019-04-22T16:20:09.112Z,21.71
2019-04-22T16:22:57.092Z,21.35
2019-04-22T16:25:45.240Z,21.55
2019-04-22T16:28:15.553Z,21.27
2019-04-22T16:30:45.505Z,21.27
2019-04-22T16:33:15.333Z,21.20
2019-04-22T16:35:45.058Z,21.16
2019-04-22T16:38:15.120Z,21.19
2019-04-22T16:40:45.058Z,21.29
2019-04-22T16:43:14.643Z,21.32
2019-04-22T16:45:45.493Z,21.49
2019-04-22T16:48:16.063Z,21.51
2019-04-22T16:50:48.652Z,21.26
2019-04-22T16:53:16.987Z,21.01
2019-04-22T16:55:46.678Z,20.98
2019-04-22T16:58:18.799Z,20.87
2019-04-22T17:00:49.620Z,21.00
2019-04-22T17:03:38.724Z,20.87
2019-04-22T17:06:25.601Z,21.18
2019-04-22T17:08:55.400Z,20.96
2019-04-22T17:11:25.601Z,21.26
2019-04-22T17:13:55.348Z,21.30
2019-04-22T17:16:26.257Z,21.23
2019-04-22T17:18:56.471Z,21.14
2019-04-22T17:21:26.010Z,21.38
2019-04-22T17:23:55.967Z,21.27
2019-04-22T17:26:26.476Z,21.10
2019-04-22T17:28:57.583Z,21.10
2019-04-22T17:31:28.862Z,21.01
2019-04-22T17:33:58.992Z,20.88
2019-04-22T17:36:29.825Z,20.73
2019-04-22T17:39:14.592Z,20.52
2019-04-22T17:41:53.968Z,20.49
2019-04-22T17:44:41.423Z,20.32
2019-04-22T17:47:04.931Z,20.68
2019-04-22T17:50:08.189Z,20.65
2019-04-22T17:54:50.161Z,20.54
2019-04-22T17:57:23.951Z,20.51
2019-04-22T17:59:50.533Z,20.47
2019-04-22T18:02:24.929Z,20.39
2019-04-22T18:04:46.117Z,20.68
2019-04-22T18:10:24.215Z,20.34
2019-04-22T18:12:38.567Z,20.37
2019-04-22T18:15:04.006Z,20.44
2019-04-22T18:17:35.511Z,20.44
2019-04-22T18:19:58.255Z,20.10
2019-04-22T18:22:29.371Z,20.34
2019-04-22T18:25:04.245Z,20.30
2019-04-22T18:30:03.954Z,19.83
2019-04-22T18:32:42.422Z,19.84
2019-04-22T18:35:11.477Z,19.96
2019-04-22T18:37:43.778Z,19.93
2019-04-22T18:40:15.118Z,19.79
2019-04-22T18:42:53.567Z,19.71
2019-04-22T18:45:35.808Z,19.83
2019-04-22T18:47:43.906Z,19.73
2019-04-22T18:50:30.711Z,19.60
2019-04-22T18:53:20.200Z,19.73
2019-04-22T18:55:41.412Z,19.74
2019-04-22T18:58:09.065Z,19.49
2019-04-22T19:00:34.235Z,19.64
2019-04-22T19:03:13.494Z,19.60
2019-04-22T19:05:55.810Z,19.50
2019-04-22T19:08:28.884Z,19.33
2019-04-22T19:11:04.979Z,19.03
2019-04-22T19:16:17.207Z,19.00
2019-04-22T19:18:33.643Z,19.04
2019-04-22T19:21:07.942Z,18.85
2019-04-22T19:23:31.948Z,18.89
2019-04-22T19:26:08.316Z,18.52
2019-04-22T19:28:41.885Z,18.69
2019-04-22T19:31:13.792Z,18.71
2019-04-22T19:33:44.443Z,18.48
2019-04-22T19:36:14.671Z,18.51
2019-04-22T19:38:31.265Z,18.25
2019-04-22T19:41:23.153Z,18.26
2019-04-22T19:43:46.861Z,18.23
2019-04-22T19:46:16.732Z,18.08
2019-04-22T19:48:50.128Z,18.06
2019-04-22T19:51:23.619Z,18.07
2019-04-22T19:53:51.315Z,17.96
2019-04-22T19:56:17.503Z,18.11
2019-04-22T19:58:47.694Z,18.04
2019-04-22T20:01:44.108Z,17.79
2019-04-22T20:04:47.984Z,17.80
2019-04-22T20:07:08.505Z,17.80
2019-04-22T20:09:47.852Z,17.47
2019-04-22T20:12:18.982Z,17.74
2019-04-22T20:14:48.102Z,17.68
2019-04-22T20:17:24.487Z,17.68
2019-04-22T20:19:55.343Z,17.68
2019-04-22T20:22:17.680Z,17.54
2019-04-22T20:24:43.497Z,17.45
2019-04-22T20:27:28.525Z,17.56
2019-04-22T20:30:02.392Z,17.57
2019-04-22T20:32:26.410Z,16.92
2019-04-22T20:35:03.011Z,17.30
2019-04-22T20:37:35.564Z,17.50
2019-04-22T20:40:02.424Z,17.25
2019-04-22T20:45:11.815Z,17.03
2019-04-22T20:47:30.480Z,17.12
2019-04-22T20:50:05.387Z,17.16
2019-04-22T20:52:50.238Z,17.14
2019-04-22T20:55:07.990Z,17.01
2019-04-22T20:57:50.029Z,17.10
2019-04-22T21:00:11.516Z,17.05
2019-04-22T21:02:38.808Z,16.98
2019-04-22T21:05:03.251Z,16.85
2019-04-22T21:07:47.925Z,16.87
2019-04-22T21:10:17.282Z,16.80
2019-04-22T21:12:38.663Z,16.83
2019-04-22T21:15:29.939Z,16.86
2019-04-22T21:17:53.501Z,16.81
2019-04-22T21:20:33.404Z,16.79
2019-04-22T21:22:58.213Z,16.86
2019-04-22T21:25:20.575Z,16.72
2019-04-22T21:28:08.099Z,16.57
2019-04-22T21:30:31.995Z,16.58
2019-04-22T21:32:58.311Z,16.67
2019-04-22T21:35:48.149Z,16.74
2019-04-22T21:38:08.436Z,16.72
2019-04-22T21:40:38.799Z,16.83
2019-04-22T21:43:12.310Z,16.51
2019-04-22T21:45:31.035Z,16.36
2019-04-22T21:48:20.595Z,16.53
2019-04-22T21:50:50.188Z,16.46
2019-04-22T21:53:22.745Z,16.21
2019-04-22T21:55:58.538Z,16.01
2019-04-22T21:58:24.516Z,15.88
2019-04-22T22:01:14.431Z,16.09
2019-04-22T22:03:38.144Z,15.98
2019-04-22T22:06:04.483Z,15.97
2019-04-22T22:08:45.767Z,15.75
2019-04-22T22:11:13.373Z,16.02
2019-04-22T22:13:48.794Z,15.76
2019-04-22T22:16:12.808Z,15.87
2019-04-22T22:18:52.920Z,15.69
2019-04-22T22:21:42.104Z,15.73
2019-04-22T22:23:55.883Z,15.94
2019-04-22T22:26:15.252Z,15.82
2019-04-22T22:31:28.633Z,15.35
2019-04-22T22:33:58.010Z,15.63
2019-04-22T22:36:26.401Z,15.63
2019-04-22T22:38:56.151Z,15.48
2019-04-22T22:41:10.133Z,15.54
2019-04-22T22:43:45.321Z,15.38
2019-04-22T22:46:24.692Z,15.45
2019-04-22T22:49:05.133Z,15.49
2019-04-22T22:51:39.886Z,15.43
2019-04-22T22:54:06.358Z,14.89
2019-04-22T22:56:42.374Z,15.33
2019-04-22T22:59:08.163Z,15.21
2019-04-22T23:01:39.698Z,15.00
2019-04-22T23:04:21.046Z,15.32
2019-04-22T23:06:48.379Z,15.39
2019-04-22T23:09:15.399Z,15.10
2019-04-22T23:14:23.348Z,15.17
2019-04-22T23:16:37.853Z,15.08
2019-04-22T23:19:02.233Z,14.95
2019-04-22T23:21:39.707Z,15.09
2019-04-22T23:24:37.795Z,15.03
2019-04-22T23:27:19.340Z,14.89
2019-04-22T23:30:06.432Z,14.84
2019-04-22T23:32:38.856Z,14.49
2019-04-22T23:35:22.918Z,14.60
2019-04-22T23:37:52.635Z,14.48
2019-04-22T23:43:00.204Z,14.47
2019-04-22T23:45:33.264Z,14.44
2019-04-22T23:48:00.935Z,14.57
2019-04-22T23:50:38.877Z,14.51
2019-04-22T23:53:42.718Z,14.43
2019-04-22T23:56:01.747Z,14.31
2019-04-22T23:58:47.665Z,14.17
